sensor_id;sensor_type;location;lat;lon;timestamp;temperature;humidity
3794;DHT22;1912;51.358;12.282;2023-03-01T04:45:37;-4.30;1.00
3794;DHT22;1912;51.358;12.282;2023-03-01T04:48:03;-4.30;1.00
3794;DHT22;1912;51.358;12.282;2023-03-01T04:50:29;-4.20;1.00
3794;DHT22;1912;51.358;12.282;2023-03-01T04:52:55;-4.30;1.00
3794;DHT22;1912;51.358;12.282;2023-03-01T04:55:27;-4.40;1.00
3794;DHT22;1912;51.358;12.282;2023-03-01T04:57:54;-4.40;1.00
3794;DHT22;1912;51.358;12.282;2023-03-01T05:00:20;-4.40;1.00
3794;DHT22;1912;51.358;12.282;2023-03-01T05:05:28;-4.30;1.00
3794;DHT22;1912;51.358;12.282;2023-03-01T05:08:01;-4.30;1.00
3794;DHT22;1912;51.358;12.282;2023-03-01T05:10:30;-4.30;1.00
3794;DHT22;1912;51.358;12.282;2023-03-01T05:12:58;-4.30;1.00
3794;DHT22;1912;51.358;12.282;2023-03-01T05:15:25;-4.30;1.00
3794;DHT22;1912;51.358;12.282;2023-03-01T05:17:53;-4.20;1.00
3794;DHT22;1912;51.358;12.282;2023-03-01T05:20:20;-4.20;1.00
3794;DHT22;1912;51.358;12.282;2023-03-01T05:22:48;-4.20;1.00
3794;DHT22;1912;51.358;12.282;2023-03-01T05:25:14;-4.20;1.00
3794;DHT22;1912;51.358;12.282;2023-03-01T05:27:40;-4.20;1.00
3794;DHT22;1912;51.358;12.282;2023-03-01T05:30:06;-4.20;1.00
3794;DHT22;1912;51.358;12.282;2023-03-01T05:32:47;-4.20;1.00
3794;DHT22;1912;51.358;12.282;2023-03-01T05:35:17;-4.10;1.00
3794;DHT22;1912;51.358;12.282;2023-03-01T05:37:45;-4.20;1.00
3794;DHT22;1912;51.358;12.282;2023-03-01T05:40:16;-4.30;1.00
3794;DHT22;1912;51.358;12.282;2023-03-01T05:42:51;-4.30;1.00
3794;DHT22;1912;51.358;12.282;2023-03-01T05:45:19;-4.30;1.00
3794;DHT22;1912;51.358;12.282;2023-03-01T05:47:46;-4.30;1.00
3794;DHT22;1912;51.358;12.282;2023-03-01T05:50:15;-4.30;1.00
3794;DHT22;1912;51.358;12.282;2023-03-01T05:52:45;-4.30;1.00
3794;DHT22;1912;51.358;12.282;2023-03-01T05:55:14;-4.20;1.00
3794;DHT22;1912;51.358;12.282;2023-03-01T05:57:41;-4.20;1.00
3794;DHT22;1912;51.358;12.282;2023-03-01T06:00:08;-4.20;1.00
3794;DHT22;1912;51.358;12.282;2023-03-01T06:02:35;-4.20;1.00
3794;DHT22;1912;51.358;12.282;2023-03-01T06:05:00;-4.20;1.00
3794;DHT22;1912;51.358;12.282;2023-03-01T06:07:26;-4.20;1.00
3794;DHT22;1912;51.358;12.282;2023-03-01T06:09:52;-4.20;1.00
3794;DHT22;1912;51.358;12.282;2023-03-01T06:12:17;-4.20;1.00
3794;DHT22;1912;51.358;12.282;2023-03-01T06:14:45;-4.20;1.00
3794;DHT22;1912;51.358;12.282;2023-03-01T06:17:12;-4.20;1.00
3794;DHT22;1912;51.358;12.282;2023-03-01T06:19:37;-4.20;1.00
3794;DHT22;1912;51.358;12.282;2023-03-01T06:22:03;-4.20;1.00
3794;DHT22;1912;51.358;12.282;2023-03-01T06:24:29;-4.10;1.00
3794;DHT22;1912;51.358;12.282;2023-03-01T06:26:55;-4.20;1.00
3794;DHT22;1912;51.358;12.282;2023-03-01T06:29:22;-4.20;1.00
3794;DHT22;1912;51.358;12.282;2023-03-01T06:31:48;-4.10;1.00
3794;DHT22;1912;51.358;12.282;2023-03-01T06:34:14;-4.00;1.00
3794;DHT22;1912;51.358;12.282;2023-03-01T06:36:40;-3.80;1.00
3794;DHT22;1912;51.358;12.282;2023-03-01T06:39:06;-3.70;1.00
3794;DHT22;1912;51.358;12.282;2023-03-01T06:41:32;-3.50;1.00
3794;DHT22;1912;51.358;12.282;2023-03-01T06:43:59;-3.30;1.00
3794;DHT22;1912;51.358;12.282;2023-03-01T06:46:25;-3.10;1.00
3794;DHT22;1912;51.358;12.282;2023-03-01T06:48:50;-3.00;1.00
3794;DHT22;1912;51.358;12.282;2023-03-01T06:51:16;-2.90;1.00
3794;DHT22;1912;51.358;12.282;2023-03-01T06:53:41;-2.80;1.00
3794;DHT22;1912;51.358;12.282;2023-03-01T06:56:07;-2.60;1.00
3794;DHT22;1912;51.358;12.282;2023-03-01T06:58:33;-2.30;1.00
3794;DHT22;1912;51.358;12.282;2023-03-01T07:00:59;-2.10;1.00
3794;DHT22;1912;51.358;12.282;2023-03-01T07:03:25;-1.90;1.00
3794;DHT22;1912;51.358;12.282;2023-03-01T07:05:51;-1.80;1.00
3794;DHT22;1912;51.358;12.282;2023-03-01T07:08:18;-1.60;1.00
3794;DHT22;1912;51.358;12.282;2023-03-01T07:10:44;-1.40;1.00
3794;DHT22;1912;51.358;12.282;2023-03-01T07:13:10;-1.10;1.00
3794;DHT22;1912;51.358;12.282;2023-03-01T07:15:35;-0.90;1.00
3794;DHT22;1912;51.358;12.282;2023-03-01T07:18:01;-0.70;1.00
3794;DHT22;1912;51.358;12.282;2023-03-01T07:20:27;-0.50;1.00
3794;DHT22;1912;51.358;12.282;2023-03-01T07:22:54;-0.30;1.00
3794;DHT22;1912;51.358;12.282;2023-03-01T07:25:20;-0.20;1.00
3794;DHT22;1912;51.358;12.282;2023-03-01T07:27:50;0.00;1.00
3794;DHT22;1912;51.358;12.282;2023-03-01T07:30:16;0.00;1.00
3794;DHT22;1912;51.358;12.282;2023-03-01T07:32:42;0.00;1.00
3794;DHT22;1912;51.358;12.282;2023-03-01T07:35:08;0.10;1.00
3794;DHT22;1912;51.358;12.282;2023-03-01T07:37:34;0.10;1.00
3794;DHT22;1912;51.358;12.282;2023-03-01T07:39:59;0.20;1.00
3794;DHT22;1912;51.358;12.282;2023-03-01T07:42:25;0.40;1.00
3794;DHT22;1912;51.358;12.282;2023-03-01T07:44:51;0.50;1.00
3794;DHT22;1912;51.358;12.282;2023-03-01T07:47:16;0.70;1.00
3794;DHT22;1912;51.358;12.282;2023-03-01T07:49:42;1.00;1.00
3794;DHT22;1912;51.358;12.282;2023-03-01T07:52:10;1.30;1.00
3794;DHT22;1912;51.358;12.282;2023-03-01T07:54:37;1.60;1.00
3794;DHT22;1912;51.358;12.282;2023-03-01T07:57:03;1.80;1.00
3794;DHT22;1912;51.358;12.282;2023-03-01T07:59:29;2.20;1.00
3794;DHT22;1912;51.358;12.282;2023-03-01T08:01:56;2.40;1.00
3794;DHT22;1912;51.358;12.282;2023-03-01T08:04:22;2.10;1.00
3794;DHT22;1912;51.358;12.282;2023-03-01T08:06:50;2.20;1.00
3794;DHT22;1912;51.358;12.282;2023-03-01T08:09:16;2.30;1.00
3794;DHT22;1912;51.358;12.282;2023-03-01T08:11:42;2.30;1.00
3794;DHT22;1912;51.358;12.282;2023-03-01T08:14:08;2.50;1.00
3794;DHT22;1912;51.358;12.282;2023-03-01T08:16:33;2.90;1.00
3794;DHT22;1912;51.358;12.282;2023-03-01T08:19:04;3.20;1.00
3794;DHT22;1912;51.358;12.282;2023-03-01T08:21:32;3.20;1.00
3794;DHT22;1912;51.358;12.282;2023-03-01T08:24:03;3.50;1.00
3794;DHT22;1912;51.358;12.282;2023-03-01T08:26:30;3.90;1.00
3794;DHT22;1912;51.358;12.282;2023-03-01T08:28:56;4.00;1.00
3794;DHT22;1912;51.358;12.282;2023-03-01T08:31:32;4.40;1.00
3794;DHT22;1912;51.358;12.282;2023-03-01T08:34:03;4.40;1.00
3794;DHT22;1912;51.358;12.282;2023-03-01T08:36:39;4.80;1.00
3794;DHT22;1912;51.358;12.282;2023-03-01T08:39:07;5.10;1.00
3794;DHT22;1912;51.358;12.282;2023-03-01T08:41:33;4.90;1.00
3794;DHT22;1912;51.358;12.282;2023-03-01T08:43:59;4.60;1.00
3794;DHT22;1912;51.358;12.282;2023-03-01T08:46:26;4.70;1.00
3794;DHT22;1912;51.358;12.282;2023-03-01T08:48:54;4.80;1.00
3794;DHT22;1912;51.358;12.282;2023-03-01T08:51:21;4.40;1.00
3794;DHT22;1912;51.358;12.282;2023-03-01T08:53:47;4.40;1.00
3794;DHT22;1912;51.358;12.282;2023-03-01T08:56:13;4.70;1.00
3794;DHT22;1912;51.358;12.282;2023-03-01T08:58:39;4.90;1.00
3794;DHT22;1912;51.358;12.282;2023-03-01T09:01:09;4.90;1.00
3794;DHT22;1912;51.358;12.282;2023-03-01T09:03:36;4.50;1.00
3794;DHT22;1912;51.358;12.282;2023-03-01T09:06:03;5.30;1.00
3794;DHT22;1912;51.358;12.282;2023-03-01T09:08:33;5.70;1.00
3794;DHT22;1912;51.358;12.282;2023-03-01T09:11:02;5.90;1.00
3794;DHT22;1912;51.358;12.282;2023-03-01T09:13:29;5.80;1.00
3794;DHT22;1912;51.358;12.282;2023-03-01T09:15:57;5.70;1.00
3794;DHT22;1912;51.358;12.282;2023-03-01T09:18:23;5.60;1.00
3794;DHT22;1912;51.358;12.282;2023-03-01T09:20:49;5.70;1.00
3794;DHT22;1912;51.358;12.282;2023-03-01T09:23:15;6.00;1.00
3794;DHT22;1912;51.358;12.282;2023-03-01T09:25:40;5.80;1.00
3794;DHT22;1912;51.358;12.282;2023-03-01T09:28:06;6.00;1.00
3794;DHT22;1912;51.358;12.282;2023-03-01T09:30:32;5.70;1.00
3794;DHT22;1912;51.358;12.282;2023-03-01T09:32:57;5.50;1.00
3794;DHT22;1912;51.358;12.282;2023-03-01T09:35:23;5.50;1.00
3794;DHT22;1912;51.358;12.282;2023-03-01T09:37:49;5.90;1.00
3794;DHT22;1912;51.358;12.282;2023-03-01T09:40:18;6.20;1.00
3794;DHT22;1912;51.358;12.282;2023-03-01T09:45:32;6.30;1.00
3794;DHT22;1912;51.358;12.282;2023-03-01T09:48:00;6.80;1.00
3794;DHT22;1912;51.358;12.282;2023-03-01T09:50:33;6.70;1.00
3794;DHT22;1912;51.358;12.282;2023-03-01T09:53:14;6.90;1.00
3794;DHT22;1912;51.358;12.282;2023-03-01T10:02:21;7.20;1.00
3794;DHT22;1912;51.358;12.282;2023-03-01T10:04:55;6.90;1.00
3794;DHT22;1912;51.358;12.282;2023-03-01T10:07:56;7.10;1.00
3794;DHT22;1912;51.358;12.282;2023-03-01T10:10:37;6.20;1.00
3794;DHT22;1912;51.358;12.282;2023-03-01T10:13:15;6.40;1.00
3794;DHT22;1912;51.358;12.282;2023-03-01T10:15:55;6.20;1.00
3794;DHT22;1912;51.358;12.282;2023-03-01T10:18:26;6.30;1.00
3794;DHT22;1912;51.358;12.282;2023-03-01T10:21:22;6.50;1.00
3794;DHT22;1912;51.358;12.282;2023-03-01T10:23:50;7.00;1.00
3794;DHT22;1912;51.358;12.282;2023-03-01T10:26:31;7.00;1.00
3794;DHT22;1912;51.358;12.282;2023-03-01T10:29:07;7.20;1.00
3794;DHT22;1912;51.358;12.282;2023-03-01T10:31:46;7.40;1.00
3794;DHT22;1912;51.358;12.282;2023-03-01T10:34:18;7.40;1.00
3794;DHT22;1912;51.358;12.282;2023-03-01T10:36:49;6.50;1.00
3794;DHT22;1912;51.358;12.282;2023-03-01T10:39:22;6.20;1.00
3794;DHT22;1912;51.358;12.282;2023-03-01T10:44:42;6.20;1.00
3794;DHT22;1912;51.358;12.282;2023-03-01T10:47:16;6.30;1.00
3794;DHT22;1912;51.358;12.282;2023-03-01T10:52:37;6.40;1.00
3794;DHT22;1912;51.358;12.282;2023-03-01T10:55:31;6.70;1.00
3794;DHT22;1912;51.358;12.282;2023-03-01T10:58:11;6.80;1.00
3794;DHT22;1912;51.358;12.282;2023-03-01T11:03:40;6.20;1.00
3794;DHT22;1912;51.358;12.282;2023-03-01T11:08:45;6.50;1.00
3794;DHT22;1912;51.358;12.282;2023-03-01T11:13:51;5.80;1.00
3794;DHT22;1912;51.358;12.282;2023-03-01T11:16:59;5.80;1.00
3794;DHT22;1912;51.358;12.282;2023-03-01T11:19:29;5.50;1.00
3794;DHT22;1912;51.358;12.282;2023-03-01T11:22:10;5.60;1.00
3794;DHT22;1912;51.358;12.282;2023-03-01T11:24:41;5.90;1.00
3794;DHT22;1912;51.358;12.282;2023-03-01T11:27:33;5.90;1.00
3794;DHT22;1912;51.358;12.282;2023-03-01T11:30:12;5.60;1.00
3794;DHT22;1912;51.358;12.282;2023-03-01T11:33:08;5.80;1.00
3794;DHT22;1912;51.358;12.282;2023-03-01T11:35:57;5.70;1.00
3794;DHT22;1912;51.358;12.282;2023-03-01T11:38:26;5.90;1.00
3794;DHT22;1912;51.358;12.282;2023-03-01T11:41:06;6.10;1.00
3794;DHT22;1912;51.358;12.282;2023-03-01T11:44:03;5.70;1.00
3794;DHT22;1912;51.358;12.282;2023-03-01T11:47:46;6.00;1.00
3794;DHT22;1912;51.358;12.282;2023-03-01T11:52:42;5.70;1.00
3794;DHT22;1912;51.358;12.282;2023-03-01T12:06:56;5.70;1.00
3794;DHT22;1912;51.358;12.282;2023-03-01T12:09:52;5.50;1.00
3794;DHT22;1912;51.358;12.282;2023-03-01T12:15:32;6.10;1.00
3794;DHT22;1912;51.358;12.282;2023-03-01T12:18:23;6.10;1.00
3794;DHT22;1912;51.358;12.282;2023-03-01T12:21:03;6.20;1.00
3794;DHT22;1912;51.358;12.282;2023-03-01T12:23:46;5.80;1.00
3794;DHT22;1912;51.358;12.282;2023-03-01T12:29:54;6.10;1.00
3794;DHT22;1912;51.358;12.282;2023-03-01T12:39:04;6.20;1.00
3794;DHT22;1912;51.358;12.282;2023-03-01T12:41:59;6.00;1.00
3794;DHT22;1912;51.358;12.282;2023-03-01T12:44:48;6.20;1.00
3794;DHT22;1912;51.358;12.282;2023-03-01T12:50:44;6.20;1.00
3794;DHT22;1912;51.358;12.282;2023-03-01T12:53:26;6.20;1.00
3794;DHT22;1912;51.358;12.282;2023-03-01T12:55:58;6.20;1.00
3794;DHT22;1912;51.358;12.282;2023-03-01T13:01:20;6.30;1.00
3794;DHT22;1912;51.358;12.282;2023-03-01T13:04:20;6.60;1.00
3794;DHT22;1912;51.358;12.282;2023-03-01T13:10:24;6.50;1.00
3794;DHT22;1912;51.358;12.282;2023-03-01T13:17:52;6.80;1.00
3794;DHT22;1912;51.358;12.282;2023-03-01T13:20:25;7.00;1.00
3794;DHT22;1912;51.358;12.282;2023-03-01T13:23:02;7.20;1.00
3794;DHT22;1912;51.358;12.282;2023-03-01T13:25:30;7.40;1.00
3794;DHT22;1912;51.358;12.282;2023-03-01T13:28:32;7.40;1.00
3794;DHT22;1912;51.358;12.282;2023-03-01T13:31:02;7.30;1.00
3794;DHT22;1912;51.358;12.282;2023-03-01T13:36:00;7.70;1.00
3794;DHT22;1912;51.358;12.282;2023-03-01T13:38:48;7.50;1.00
3794;DHT22;1912;51.358;12.282;2023-03-01T13:44:36;7.10;1.00
3794;DHT22;1912;51.358;12.282;2023-03-01T13:47:13;7.20;1.00
3794;DHT22;1912;51.358;12.282;2023-03-01T13:50:01;7.70;1.00
3794;DHT22;1912;51.358;12.282;2023-03-01T13:52:43;8.00;1.00
3794;DHT22;1912;51.358;12.282;2023-03-01T13:57:54;8.00;1.00
3794;DHT22;1912;51.358;12.282;2023-03-01T14:00:25;8.00;1.00
3794;DHT22;1912;51.358;12.282;2023-03-01T14:03:00;8.10;1.00
3794;DHT22;1912;51.358;12.282;2023-03-01T14:05:27;8.00;1.00
3794;DHT22;1912;51.358;12.282;2023-03-01T14:07:54;7.90;1.00
3794;DHT22;1912;51.358;12.282;2023-03-01T14:10:19;8.10;1.00
3794;DHT22;1912;51.358;12.282;2023-03-01T14:15:42;8.30;1.00
3794;DHT22;1912;51.358;12.282;2023-03-01T14:18:58;8.10;1.00
3794;DHT22;1912;51.358;12.282;2023-03-01T14:21:30;8.00;1.00
3794;DHT22;1912;51.358;12.282;2023-03-01T14:23:57;8.10;1.00
3794;DHT22;1912;51.358;12.282;2023-03-01T14:26:23;7.90;1.00
3794;DHT22;1912;51.358;12.282;2023-03-01T14:28:50;7.90;1.00
3794;DHT22;1912;51.358;12.282;2023-03-01T14:31:39;7.90;1.00
3794;DHT22;1912;51.358;12.282;2023-03-01T14:34:05;7.90;1.00
3794;DHT22;1912;51.358;12.282;2023-03-01T14:36:33;7.80;1.00
3794;DHT22;1912;51.358;12.282;2023-03-01T14:39:00;7.70;1.00
3794;DHT22;1912;51.358;12.282;2023-03-01T14:41:32;7.60;1.00
3794;DHT22;1912;51.358;12.282;2023-03-01T14:44:03;7.40;1.00
3794;DHT22;1912;51.358;12.282;2023-03-01T14:46:38;7.60;1.00
3794;DHT22;1912;51.358;12.282;2023-03-01T14:49:13;7.50;1.00
3794;DHT22;1912;51.358;12.282;2023-03-01T14:51:57;7.40;1.00
3794;DHT22;1912;51.358;12.282;2023-03-01T14:54:29;7.30;1.00
3794;DHT22;1912;51.358;12.282;2023-03-01T14:57:03;7.30;1.00
3794;DHT22;1912;51.358;12.282;2023-03-01T14:59:28;7.10;1.00
3794;DHT22;1912;51.358;12.282;2023-03-01T15:01:56;7.10;1.00
3794;DHT22;1912;51.358;12.282;2023-03-01T15:04:24;6.90;1.00
3794;DHT22;1912;51.358;12.282;2023-03-01T15:06:52;6.80;1.00
3794;DHT22;1912;51.358;12.282;2023-03-01T15:09:20;6.90;1.00
3794;DHT22;1912;51.358;12.282;2023-03-01T15:11:46;6.80;1.00
3794;DHT22;1912;51.358;12.282;2023-03-01T15:14:40;6.80;1.00
3794;DHT22;1912;51.358;12.282;2023-03-01T15:17:35;6.70;1.00
3794;DHT22;1912;51.358;12.282;2023-03-01T15:20:15;6.60;1.00
3794;DHT22;1912;51.358;12.282;2023-03-01T15:22:46;6.60;1.00
3794;DHT22;1912;51.358;12.282;2023-03-01T15:25:23;6.40;1.00
3794;DHT22;1912;51.358;12.282;2023-03-01T15:27:52;6.40;1.00
3794;DHT22;1912;51.358;12.282;2023-03-01T15:30:23;6.40;1.00
3794;DHT22;1912;51.358;12.282;2023-03-01T15:35:46;6.30;1.00
3794;DHT22;1912;51.358;12.282;2023-03-01T15:38:32;6.40;1.00
3794;DHT22;1912;51.358;12.282;2023-03-01T15:41:03;6.30;1.00
3794;DHT22;1912;51.358;12.282;2023-03-01T15:46:03;6.10;1.00
3794;DHT22;1912;51.358;12.282;2023-03-01T15:48:29;6.10;1.00
3794;DHT22;1912;51.358;12.282;2023-03-01T15:50:57;6.10;1.00
3794;DHT22;1912;51.358;12.282;2023-03-01T15:53:23;6.10;1.00
3794;DHT22;1912;51.358;12.282;2023-03-01T15:55:49;6.00;1.00
3794;DHT22;1912;51.358;12.282;2023-03-01T15:58:21;6.00;1.00
3794;DHT22;1912;51.358;12.282;2023-03-01T16:00:49;6.00;1.00
3794;DHT22;1912;51.358;12.282;2023-03-01T16:03:21;6.00;1.00
3794;DHT22;1912;51.358;12.282;2023-03-01T16:05:49;5.80;1.00
3794;DHT22;1912;51.358;12.282;2023-03-01T16:08:16;5.70;1.00
3794;DHT22;1912;51.358;12.282;2023-03-01T16:10:42;5.70;1.00
3794;DHT22;1912;51.358;12.282;2023-03-01T16:13:11;5.60;1.00
3794;DHT22;1912;51.358;12.282;2023-03-01T16:15:38;5.60;1.00
3794;DHT22;1912;51.358;12.282;2023-03-01T16:18:05;5.50;1.00
3794;DHT22;1912;51.358;12.282;2023-03-01T16:20:33;5.40;1.00
3794;DHT22;1912;51.358;12.282;2023-03-01T16:23:06;5.40;1.00
3794;DHT22;1912;51.358;12.282;2023-03-01T16:25:34;5.30;1.00
3794;DHT22;1912;51.358;12.282;2023-03-01T16:28:00;5.20;1.00
3794;DHT22;1912;51.358;12.282;2023-03-01T16:30:30;5.20;1.00
3794;DHT22;1912;51.358;12.282;2023-03-01T16:32:56;5.10;1.00
3794;DHT22;1912;51.358;12.282;2023-03-01T16:35:24;5.10;1.00
3794;DHT22;1912;51.358;12.282;2023-03-01T16:37:50;5.00;1.00
3794;DHT22;1912;51.358;12.282;2023-03-01T16:40:19;4.90;1.00
3794;DHT22;1912;51.358;12.282;2023-03-01T16:42:47;4.90;1.00
3794;DHT22;1912;51.358;12.282;2023-03-01T16:45:13;4.80;1.00
3794;DHT22;1912;51.358;12.282;2023-03-01T16:47:40;4.70;1.00
3794;DHT22;1912;51.358;12.282;2023-03-01T16:50:06;4.70;1.00
3794;DHT22;1912;51.358;12.282;2023-03-01T16:52:33;4.70;1.00
3794;DHT22;1912;51.358;12.282;2023-03-01T16:54:59;4.60;1.00
3794;DHT22;1912;51.358;12.282;2023-03-01T16:57:24;4.60;1.00
3794;DHT22;1912;51.358;12.282;2023-03-01T16:59:53;4.50;1.00
3794;DHT22;1912;51.358;12.282;2023-03-01T17:02:19;4.50;1.00
3794;DHT22;1912;51.358;12.282;2023-03-01T17:04:50;4.40;1.00
3794;DHT22;1912;51.358;12.282;2023-03-01T17:07:17;4.30;1.00
3794;DHT22;1912;51.358;12.282;2023-03-01T17:09:42;4.30;1.00
3794;DHT22;1912;51.358;12.282;2023-03-01T17:12:09;4.10;1.00
3794;DHT22;1912;51.358;12.282;2023-03-01T17:14:37;4.10;1.00
3794;DHT22;1912;51.358;12.282;2023-03-01T17:17:07;4.00;1.00
3794;DHT22;1912;51.358;12.282;2023-03-01T17:19:33;4.00;1.00
3794;DHT22;1912;51.358;12.282;2023-03-01T17:22:01;3.80;1.00
3794;DHT22;1912;51.358;12.282;2023-03-01T17:24:28;3.80;1.00
3794;DHT22;1912;51.358;12.282;2023-03-01T17:26:57;3.70;1.00
3794;DHT22;1912;51.358;12.282;2023-03-01T17:29:23;3.60;1.00
3794;DHT22;1912;51.358;12.282;2023-03-01T17:31:52;3.60;1.00
3794;DHT22;1912;51.358;12.282;2023-03-01T17:34:21;3.50;1.00
3794;DHT22;1912;51.358;12.282;2023-03-01T17:36:47;3.40;1.00
3794;DHT22;1912;51.358;12.282;2023-03-01T17:39:15;3.30;1.00
3794;DHT22;1912;51.358;12.282;2023-03-01T17:41:41;3.30;1.00
3794;DHT22;1912;51.358;12.282;2023-03-01T17:44:08;3.20;1.00
3794;DHT22;1912;51.358;12.282;2023-03-01T17:46:33;3.20;1.00
3794;DHT22;1912;51.358;12.282;2023-03-01T17:48:59;3.10;1.00
3794;DHT22;1912;51.358;12.282;2023-03-01T17:51:25;3.10;1.00
3794;DHT22;1912;51.358;12.282;2023-03-01T17:53:51;3.00;1.00
3794;DHT22;1912;51.358;12.282;2023-03-01T17:56:16;3.00;1.00
3794;DHT22;1912;51.358;12.282;2023-03-01T17:58:42;2.90;1.00
3794;DHT22;1912;51.358;12.282;2023-03-01T18:01:16;2.90;1.00
3794;DHT22;1912;51.358;12.282;2023-03-01T18:03:45;2.80;1.00
3794;DHT22;1912;51.358;12.282;2023-03-01T18:06:25;2.80;1.00
3794;DHT22;1912;51.358;12.282;2023-03-01T18:08:52;2.70;1.00
3794;DHT22;1912;51.358;12.282;2023-03-01T18:11:20;2.70;1.00
3794;DHT22;1912;51.358;12.282;2023-03-01T18:13:47;2.60;1.00
3794;DHT22;1912;51.358;12.282;2023-03-01T18:16:16;2.60;1.00
3794;DHT22;1912;51.358;12.282;2023-03-01T18:18:44;2.50;1.00
3794;DHT22;1912;51.358;12.282;2023-03-01T18:21:11;2.40;1.00
3794;DHT22;1912;51.358;12.282;2023-03-01T18:23:40;2.40;1.00
3794;DHT22;1912;51.358;12.282;2023-03-01T18:26:09;2.40;1.00
3794;DHT22;1912;51.358;12.282;2023-03-01T18:28:37;2.30;1.00
3794;DHT22;1912;51.358;12.282;2023-03-01T18:31:08;2.30;1.00
3794;DHT22;1912;51.358;12.282;2023-03-01T18:33:36;2.20;1.00
3794;DHT22;1912;51.358;12.282;2023-03-01T18:36:03;2.20;1.00
3794;DHT22;1912;51.358;12.282;2023-03-01T18:38:30;2.10;1.00
3794;DHT22;1912;51.358;12.282;2023-03-01T18:40:56;2.00;1.00
3794;DHT22;1912;51.358;12.282;2023-03-01T18:43:23;2.10;1.00
3794;DHT22;1912;51.358;12.282;2023-03-01T18:46:00;2.00;1.00
3794;DHT22;1912;51.358;12.282;2023-03-01T18:48:25;2.00;1.00
3794;DHT22;1912;51.358;12.282;2023-03-01T18:50:52;1.90;1.00
3794;DHT22;1912;51.358;12.282;2023-03-01T18:53:17;1.90;1.00
3794;DHT22;1912;51.358;12.282;2023-03-01T18:55:43;1.90;1.00
3794;DHT22;1912;51.358;12.282;2023-03-01T18:58:09;1.90;1.00
3794;DHT22;1912;51.358;12.282;2023-03-01T19:00:35;1.90;1.00
3794;DHT22;1912;51.358;12.282;2023-03-01T19:03:00;1.90;1.00
3794;DHT22;1912;51.358;12.282;2023-03-01T19:05:27;1.90;1.00
3794;DHT22;1912;51.358;12.282;2023-03-01T19:07:53;1.90;1.00
3794;DHT22;1912;51.358;12.282;2023-03-01T19:10:19;1.90;1.00
3794;DHT22;1912;51.358;12.282;2023-03-01T19:12:45;1.80;1.00
3794;DHT22;1912;51.358;12.282;2023-03-01T19:15:11;1.90;1.00
3794;DHT22;1912;51.358;12.282;2023-03-01T19:17:37;1.70;1.00
3794;DHT22;1912;51.358;12.282;2023-03-01T19:20:03;1.70;1.00
3794;DHT22;1912;51.358;12.282;2023-03-01T19:22:29;1.70;1.00
3794;DHT22;1912;51.358;12.282;2023-03-01T19:24:55;1.70;1.00
3794;DHT22;1912;51.358;12.282;2023-03-01T19:27:21;1.70;1.00
3794;DHT22;1912;51.358;12.282;2023-03-01T19:29:46;1.70;1.00
3794;DHT22;1912;51.358;12.282;2023-03-01T19:32:12;1.60;1.00
3794;DHT22;1912;51.358;12.282;2023-03-01T19:34:38;1.60;1.00
3794;DHT22;1912;51.358;12.282;2023-03-01T19:37:05;1.60;1.00
3794;DHT22;1912;51.358;12.282;2023-03-01T19:39:31;1.50;1.00
3794;DHT22;1912;51.358;12.282;2023-03-01T19:41:57;1.50;1.00
3794;DHT22;1912;51.358;12.282;2023-03-01T19:44:23;1.50;1.00
3794;DHT22;1912;51.358;12.282;2023-03-01T19:46:53;1.50;1.00
3794;DHT22;1912;51.358;12.282;2023-03-01T19:49:21;1.50;1.00
3794;DHT22;1912;51.358;12.282;2023-03-01T19:51:47;1.40;1.00
3794;DHT22;1912;51.358;12.282;2023-03-01T19:54:12;1.40;1.00
3794;DHT22;1912;51.358;12.282;2023-03-01T19:56:39;1.40;1.00
3794;DHT22;1912;51.358;12.282;2023-03-01T19:59:05;1.30;1.00
3794;DHT22;1912;51.358;12.282;2023-03-01T20:01:35;1.20;1.00
3794;DHT22;1912;51.358;12.282;2023-03-01T20:04:02;1.10;1.00
3794;DHT22;1912;51.358;12.282;2023-03-01T20:06:29;0.90;1.00
3794;DHT22;1912;51.358;12.282;2023-03-01T20:08:54;0.80;1.00
3794;DHT22;1912;51.358;12.282;2023-03-01T20:11:21;0.70;1.00
3794;DHT22;1912;51.358;12.282;2023-03-01T20:13:46;0.60;1.00
3794;DHT22;1912;51.358;12.282;2023-03-01T20:16:16;0.50;1.00
3794;DHT22;1912;51.358;12.282;2023-03-01T20:18:43;0.50;1.00
3794;DHT22;1912;51.358;12.282;2023-03-01T20:21:10;0.50;1.00
3794;DHT22;1912;51.358;12.282;2023-03-01T20:23:35;0.60;1.00
3794;DHT22;1912;51.358;12.282;2023-03-01T20:26:07;0.50;1.00
3794;DHT22;1912;51.358;12.282;2023-03-01T20:28:35;0.50;1.00
3794;DHT22;1912;51.358;12.282;2023-03-01T20:31:06;0.50;1.00
3794;DHT22;1912;51.358;12.282;2023-03-01T20:33:34;0.50;1.00
3794;DHT22;1912;51.358;12.282;2023-03-01T20:36:00;0.50;1.00
3794;DHT22;1912;51.358;12.282;2023-03-01T20:38:26;0.40;1.00
3794;DHT22;1912;51.358;12.282;2023-03-01T20:41:03;0.40;1.00
3794;DHT22;1912;51.358;12.282;2023-03-01T20:43:30;0.30;1.00
3794;DHT22;1912;51.358;12.282;2023-03-01T20:45:56;0.30;1.00
3794;DHT22;1912;51.358;12.282;2023-03-01T20:48:23;0.30;1.00
3794;DHT22;1912;51.358;12.282;2023-03-01T20:50:49;0.20;1.00
3794;DHT22;1912;51.358;12.282;2023-03-01T20:53:15;0.20;1.00
3794;DHT22;1912;51.358;12.282;2023-03-01T20:55:41;0.10;1.00
3794;DHT22;1912;51.358;12.282;2023-03-01T20:58:06;0.10;1.00
3794;DHT22;1912;51.358;12.282;2023-03-01T21:00:32;-0.10;1.00
3794;DHT22;1912;51.358;12.282;2023-03-01T21:02:58;-0.20;1.00
3794;DHT22;1912;51.358;12.282;2023-03-01T21:05:23;-0.20;1.00
3794;DHT22;1912;51.358;12.282;2023-03-01T21:07:49;-0.30;1.00
3794;DHT22;1912;51.358;12.282;2023-03-01T21:10:15;-0.30;1.00
3794;DHT22;1912;51.358;12.282;2023-03-01T21:12:41;-0.30;1.00
3794;DHT22;1912;51.358;12.282;2023-03-01T21:15:07;-0.30;1.00
3794;DHT22;1912;51.358;12.282;2023-03-01T21:17:33;-0.40;1.00
3794;DHT22;1912;51.358;12.282;2023-03-01T21:19:59;-0.30;1.00
3794;DHT22;1912;51.358;12.282;2023-03-01T21:22:25;-0.30;1.00
3794;DHT22;1912;51.358;12.282;2023-03-01T21:24:51;-0.30;1.00
3794;DHT22;1912;51.358;12.282;2023-03-01T21:27:17;-0.50;1.00
3794;DHT22;1912;51.358;12.282;2023-03-01T21:29:44;-0.60;1.00
3794;DHT22;1912;51.358;12.282;2023-03-01T21:32:12;-0.50;1.00
3794;DHT22;1912;51.358;12.282;2023-03-01T21:34:38;-0.50;1.00
